Time;durP1;ratioP1;P1;durP2;ratioP2;P2;SDS_P1;SDS_P2;PMS_P1;PMS_P2;Temp;Humidity;BMP_temperature;BMP_pressure;BME280_temperature;BME280_humidity;BME280_pressure;Samples;Min_cycle;Max_cycle;Signal;HPM_P1;HPM_P2
2023/07/04 00:02:52;;;;;;;8.93;3.73;;;;;;;16.04;68.79;100226.13;6073841;28;20033;-67
2023/07/04 00:05:48;;;;;;;10.98;3.72;;;;;;;16.03;68.79;100203.06;6073948;28;20267;-65
2023/07/04 00:08:43;;;;;;;11.43;3.28;;;;;;;16.04;67.82;100203.91;6074684;28;20032;-66
2023/07/04 00:11:39;;;;;;;9.07;3.00;;;;;;;16.20;67.42;100214.31;6074476;28;20030;-68
2023/07/04 00:14:34;;;;;;;15.83;4.00;;;;;;;16.27;67.20;100212.53;6074211;28;20465;-66
2023/07/04 00:17:29;;;;;;;12.83;3.67;;;;;;;16.30;67.13;100216.66;6074683;28;20028;-65
2023/07/04 00:20:25;;;;;;;14.15;3.50;;;;;;;16.30;67.50;100230.88;6074236;28;20038;-67
2023/07/04 00:23:29;;;;;;;11.50;3.30;;;;;;;16.24;67.60;100230.81;6073857;28;20423;-69
2023/07/04 00:26:26;;;;;;;8.45;3.25;;;;;;;16.20;67.84;100230.38;6074355;28;20057;-67
2023/07/04 00:29:22;;;;;;;10.30;3.28;;;;;;;16.19;68.09;100231.41;6074599;28;20029;-67
2023/07/04 00:32:17;;;;;;;10.10;3.13;;;;;;;16.04;68.13;100214.59;6086500;28;20374;-65
2023/07/04 00:35:13;;;;;;;11.03;3.60;;;;;;;16.09;67.56;100236.25;6073828;28;20026;-65
2023/07/04 00:38:08;;;;;;;14.18;3.58;;;;;;;15.95;68.03;100227.28;6074213;28;20053;-64
2023/07/04 00:41:14;;;;;;;13.55;3.22;;;;;;;16.19;66.63;100238.59;6073993;28;20021;-65
2023/07/04 00:44:30;;;;;;;12.45;3.33;;;;;;;16.07;66.61;100227.59;6062916;28;20048;-65
2023/07/04 00:47:42;;;;;;;8.80;2.90;;;;;;;16.07;66.55;100219.56;6073865;28;20040;-65
2023/07/04 00:50:43;;;;;;;10.98;3.47;;;;;;;16.16;66.12;100245.19;6073100;28;20036;-66
2023/07/04 00:53:39;;;;;;;9.57;2.92;;;;;;;16.21;66.28;100240.06;6073133;28;20075;-66
2023/07/04 00:56:34;;;;;;;11.70;2.97;;;;;;;16.26;66.14;100252.84;6075563;28;20029;-68
2023/07/04 00:59:32;;;;;;;8.47;2.63;;;;;;;16.28;66.25;100270.38;6076839;28;20029;-65
2023/07/04 01:02:31;;;;;;;10.15;2.80;;;;;;;16.32;64.61;100239.53;6072713;28;20032;-65
2023/07/04 01:05:33;;;;;;;6.53;2.28;;;;;;;16.33;64.86;100249.22;6072926;28;20591;-66
2023/07/04 01:08:43;;;;;;;9.60;3.53;;;;;;;16.34;64.57;100248.19;6072452;28;20032;-65
2023/07/04 01:11:44;;;;;;;8.63;2.85;;;;;;;16.32;64.24;100254.75;6078513;28;20036;-65
2023/07/04 01:14:39;;;;;;;8.48;2.33;;;;;;;16.39;65.00;100266.31;6080641;28;20029;-65
2023/07/04 01:17:35;;;;;;;8.07;2.43;;;;;;;16.33;64.62;100251.91;6077178;28;20048;-64
2023/07/04 01:20:32;;;;;;;11.85;2.63;;;;;;;16.46;64.10;100278.75;6073049;28;20376;-65
2023/07/04 01:23:37;;;;;;;6.22;2.42;;;;;;;16.47;63.90;100285.75;6072558;28;20021;-65
2023/07/04 01:26:35;;;;;;;9.00;2.50;;;;;;;16.37;64.41;100279.91;6071960;28;20055;-65
2023/07/04 01:29:31;;;;;;;11.77;2.05;;;;;;;16.34;64.73;100282.16;6073254;28;20037;-65
2023/07/04 01:32:27;;;;;;;6.63;2.38;;;;;;;16.38;67.54;100313.69;6073301;28;20041;-66
2023/07/04 01:35:22;;;;;;;8.55;2.40;;;;;;;16.05;71.45;100318.75;6071236;28;20037;-65
2023/07/04 01:38:17;;;;;;;7.63;1.95;;;;;;;15.75;73.60;100294.97;6071963;28;20030;-66
2023/07/04 01:41:13;;;;;;;12.43;2.23;;;;;;;15.59;75.87;100303.22;6073106;28;20029;-65
2023/07/04 01:44:08;;;;;;;9.23;2.87;;;;;;;15.45;77.08;100294.19;6072735;28;20113;-66
2023/07/04 01:47:04;;;;;;;8.82;2.30;;;;;;;15.38;77.38;100291.44;6083357;28;20037;-66
2023/07/04 01:49:59;;;;;;;9.52;2.17;;;;;;;15.38;78.33;100309.34;6072945;28;20516;-66
2023/07/04 01:52:55;;;;;;;5.30;2.33;;;;;;;15.38;79.00;100320.03;6071947;28;20412;-66
2023/07/04 01:55:50;;;;;;;10.07;1.73;;;;;;;15.19;77.40;100304.56;6071848;28;20456;-64
2023/07/04 01:58:45;;;;;;;4.47;1.80;;;;;;;15.33;78.24;100327.75;6073149;28;20083;-66
2023/07/04 02:01:41;;;;;;;8.70;2.47;;;;;;;15.27;78.35;100315.97;6073148;28;20037;-66
2023/07/04 02:04:36;;;;;;;9.13;1.77;;;;;;;15.13;78.49;100321.31;6072107;28;20076;-66
2023/07/04 02:07:32;;;;;;;4.67;1.50;;;;;;;15.05;78.47;100324.09;6072957;28;20033;-66
2023/07/04 02:10:27;;;;;;;6.00;1.25;;;;;;;14.90;78.50;100329.41;6073628;28;20026;-66
2023/07/04 02:13:23;;;;;;;9.07;1.20;;;;;;;14.73;78.73;100325.28;6072373;28;20088;-66
2023/07/04 02:16:18;;;;;;;3.63;1.10;;;;;;;14.69;78.36;100356.84;6072271;28;20076;-66
2023/07/04 02:19:13;;;;;;;3.20;0.83;;;;;;;14.70;79.21;100365.69;6072412;28;20034;-65
2023/07/04 02:22:09;;;;;;;4.27;1.23;;;;;;;14.59;79.75;100360.78;6072393;28;20029;-65
2023/07/04 02:25:04;;;;;;;6.27;0.83;;;;;;;14.35;81.54;100379.66;6073044;28;20025;-65
2023/07/04 02:27:59;;;;;;;3.80;1.00;;;;;;;14.05;84.74;100366.13;6077029;28;20036;-66
2023/07/04 02:30:59;;;;;;;2.57;1.03;;;;;;;13.73;89.25;100369.00;6077009;28;20037;-65
2023/07/04 02:33:55;;;;;;;2.90;1.30;;;;;;;13.39;93.73;100360.53;6076064;28;20079;-65
2023/07/04 02:36:50;;;;;;;1.88;0.95;;;;;;;12.97;96.68;100344.81;6076693;28;20071;-65
2023/07/04 02:39:45;;;;;;;3.20;0.70;;;;;;;12.78;99.10;100338.03;6076573;28;20416;-66
2023/07/04 02:42:40;;;;;;;4.53;0.97;;;;;;;12.69;100.00;100336.38;6076850;28;20033;-66
2023/07/04 02:45:36;;;;;;;2.67;0.90;;;;;;;12.65;100.00;100335.06;6076016;28;20029;-66
2023/07/04 02:48:31;;;;;;;3.00;1.00;;;;;;;12.71;100.00;100362.84;6076657;28;20147;-66
2023/07/04 02:51:27;;;;;;;1.25;0.80;;;;;;;12.67;100.00;100364.16;6076548;28;20021;-65
2023/07/04 02:54:22;;;;;;;1.77;0.90;;;;;;;12.61;100.00;100344.38;6075540;28;20040;-65
2023/07/04 02:57:18;;;;;;;2.87;0.87;;;;;;;12.54;100.00;100333.59;6076306;28;20021;-66
2023/07/04 03:00:13;;;;;;;2.97;0.80;;;;;;;12.58;100.00;100339.41;6076154;28;20437;-66
2023/07/04 03:03:09;;;;;;;1.97;0.90;;;;;;;12.60;100.00;100348.03;6076063;28;20036;-65
2023/07/04 03:06:05;;;;;;;4.60;1.08;;;;;;;12.50;100.00;100334.09;6075366;28;20373;-65
2023/07/04 03:09:00;;;;;;;2.17;0.75;;;;;;;12.55;100.00;100340.53;6075635;28;20365;-65
2023/07/04 03:11:56;;;;;;;5.10;1.20;;;;;;;12.63;100.00;100358.34;6075686;28;20045;-65
2023/07/04 03:14:51;;;;;;;2.63;0.90;;;;;;;12.69;100.00;100362.97;6075065;28;20060;-66
2023/07/04 03:17:47;;;;;;;3.17;0.90;;;;;;;12.71;100.00;100349.53;6075650;28;20032;-65
2023/07/04 03:20:42;;;;;;;3.83;1.17;;;;;;;12.83;100.00;100370.28;6075826;28;20029;-65
2023/07/04 03:23:38;;;;;;;5.20;1.20;;;;;;;12.92;100.00;100368.44;6073556;28;20091;-64
2023/07/04 03:26:36;;;;;;;1.10;0.70;;;;;;;12.90;100.00;100371.28;6075627;28;20561;-65
2023/07/04 03:29:31;;;;;;;3.35;0.80;;;;;;;12.85;100.00;100357.66;6075210;28;20087;-65
2023/07/04 03:32:26;;;;;;;3.10;0.97;;;;;;;12.89;100.00;100356.31;6075168;28;20041;-65
2023/07/04 03:35:22;;;;;;;2.17;1.20;;;;;;;13.05;100.00;100380.22;6074667;28;20040;-65
2023/07/04 03:38:17;;;;;;;2.90;1.00;;;;;;;13.09;100.00;100384.25;6074913;28;20029;-64
2023/07/04 03:41:12;;;;;;;1.40;0.97;;;;;;;12.99;100.00;100370.25;6075392;28;20037;-67
2023/07/04 03:44:08;;;;;;;7.10;1.10;;;;;;;13.08;100.00;100381.75;6074356;28;20032;-67
2023/07/04 03:47:03;;;;;;;3.53;1.20;;;;;;;13.20;100.00;100382.22;6076135;28;20268;-64
2023/07/04 03:49:59;;;;;;;2.33;0.93;;;;;;;13.27;99.96;100384.03;6076217;28;20021;-66
2023/07/04 03:52:54;;;;;;;2.83;1.08;;;;;;;13.22;100.00;100386.38;6074786;28;20036;-65
2023/07/04 03:55:50;;;;;;;5.63;1.27;;;;;;;13.25;99.59;100386.03;6074348;28;20095;-65
2023/07/04 03:58:45;;;;;;;1.67;1.00;;;;;;;13.30;99.69;100399.66;6074382;28;20033;-65
2023/07/04 04:01:40;;;;;;;1.87;1.00;;;;;;;13.31;98.55;100389.84;6075024;28;20048;-66
2023/07/04 04:04:39;;;;;;;2.03;0.93;;;;;;;13.34;98.18;100370.88;6074213;28;20422;-65
2023/07/04 04:07:34;;;;;;;5.28;1.27;;;;;;;13.41;98.65;100385.97;6074509;28;20389;-66
2023/07/04 04:10:29;;;;;;;5.47;1.10;;;;;;;13.29;98.70;100376.69;6074846;28;20037;-65
2023/07/04 04:13:25;;;;;;;3.50;1.27;;;;;;;13.27;99.10;100380.53;6072669;28;20025;-65
2023/07/04 04:16:22;;;;;;;8.10;1.20;;;;;;;13.13;99.72;100367.94;6074660;28;20029;-65
2023/07/04 04:19:17;;;;;;;2.65;1.00;;;;;;;13.13;99.09;100381.25;6074466;28;20303;-65
2023/07/04 04:22:13;;;;;;;4.77;1.10;;;;;;;13.15;97.70;100384.56;6074071;28;20029;-66
2023/07/04 04:25:08;;;;;;;2.45;1.00;;;;;;;13.11;97.57;100371.59;6072524;28;20365;-66
2023/07/04 04:28:04;;;;;;;3.57;1.00;;;;;;;13.26;96.86;100386.88;6074165;28;20026;-66
2023/07/04 04:31:00;;;;;;;3.15;0.93;;;;;;;13.38;95.93;100396.97;6074311;28;20044;-66
2023/07/04 04:33:55;;;;;;;2.70;1.00;;;;;;;13.41;95.85;100406.44;6073658;28;20484;-66
2023/07/04 04:36:50;;;;;;;2.93;1.00;;;;;;;13.62;95.08;100393.38;6073984;28;20472;-66
2023/07/04 04:39:45;;;;;;;6.13;1.20;;;;;;;13.56;94.47;100405.56;6074056;28;20487;-66
2023/07/04 04:42:43;;;;;;;3.30;0.87;;;;;;;13.48;94.88;100407.44;6073871;28;20096;-65
2023/07/04 04:45:38;;;;;;;2.33;1.08;;;;;;;13.61;95.42;100419.22;6073547;28;20029;-66
2023/07/04 04:48:35;;;;;;;1.80;0.90;;;;;;;13.82;94.36;100399.13;6073526;28;20373;-66
2023/07/04 04:51:31;;;;;;;3.20;0.90;;;;;;;13.92;93.31;100418.38;6073907;28;20056;-66
2023/07/04 04:54:27;;;;;;;3.63;1.17;;;;;;;13.71;93.77;100424.31;6073205;28;20029;-66
2023/07/04 04:57:23;;;;;;;4.07;1.20;;;;;;;13.60;94.08;100444.19;6072579;28;20025;-65
2023/07/04 05:00:19;;;;;;;4.30;1.08;;;;;;;13.58;94.81;100440.03;6072541;28;20029;-65
2023/07/04 05:03:14;;;;;;;2.22;0.82;;;;;;;13.88;92.70;100431.25;6071219;28;20468;-67
2023/07/04 05:06:10;;;;;;;2.10;0.90;;;;;;;14.25;90.08;100423.34;6073082;28;20034;-67
2023/07/04 05:09:06;;;;;;;2.55;0.90;;;;;;;14.52;86.90;100423.84;6073747;28;20117;-67
2023/07/04 05:12:01;;;;;;;4.23;0.77;;;;;;;14.71;85.59;100428.72;6073336;28;20457;-67
2023/07/04 05:14:57;;;;;;;3.33;0.70;;;;;;;15.34;82.94;100433.63;6073115;28;20359;-67
2023/07/04 05:17:52;;;;;;;4.40;0.77;;;;;;;15.27;81.34;100430.84;6073116;28;20038;-67
2023/07/04 05:20:47;;;;;;;3.60;0.77;;;;;;;15.37;79.90;100436.75;6073687;28;20380;-68
2023/07/04 05:23:44;;;;;;;2.57;0.93;;;;;;;15.55;79.41;100444.44;6072604;28;20038;-67
2023/07/04 05:26:40;;;;;;;4.90;0.90;;;;;;;15.89;77.88;100425.97;6073357;28;20388;-68
2023/07/04 05:29:35;;;;;;;4.20;0.90;;;;;;;16.13;76.86;100438.19;6073658;28;20033;-67
2023/07/04 05:32:30;;;;;;;3.60;0.77;;;;;;;16.28;74.46;100446.19;6076843;28;20028;-67
2023/07/04 05:35:25;;;;;;;3.27;1.10;;;;;;;15.92;75.04;100451.50;6074101;28;20082;-67
2023/07/04 05:38:21;;;;;;;3.00;0.90;;;;;;;15.89;76.11;100462.59;6072896;28;20363;-66
2023/07/04 05:41:18;;;;;;;3.40;0.70;;;;;;;15.79;76.11;100456.69;6073141;28;20029;-67
2023/07/04 05:44:13;;;;;;;4.18;1.20;;;;;;;15.40;77.20;100463.13;6072683;28;20056;-67
2023/07/04 05:47:09;;;;;;;2.50;0.90;;;;;;;15.11;78.96;100468.41;6076026;28;20095;-66
2023/07/04 05:50:05;;;;;;;3.73;0.87;;;;;;;14.99;80.23;100453.84;6073408;28;20116;-67
2023/07/04 05:53:00;;;;;;;2.38;1.00;;;;;;;14.87;80.35;100455.28;6073218;28;20267;-67
2023/07/04 05:56:12;;;;;;;1.67;0.80;;;;;;;15.01;81.31;100470.50;6072223;28;20033;-67
2023/07/04 05:59:08;;;;;;;4.68;1.10;;;;;;;14.88;80.82;100480.97;6073142;28;20025;-66
2023/07/04 06:02:05;;;;;;;2.47;0.85;;;;;;;14.99;81.50;100472.53;6083933;28;20033;-67
2023/07/04 06:05:00;;;;;;;4.47;1.17;;;;;;;15.04;80.81;100470.16;6077129;28;20353;-66
2023/07/04 06:07:56;;;;;;;2.97;1.30;;;;;;;14.97;79.86;100466.56;6077380;28;20021;-67
2023/07/04 06:11:02;;;;;;;4.35;1.20;;;;;;;15.05;80.79;100485.16;6077413;28;20025;-67
2023/07/04 06:13:57;;;;;;;4.13;1.50;;;;;;;15.13;80.29;100482.44;6076838;28;20030;-67
2023/07/04 06:16:55;;;;;;;3.33;1.10;;;;;;;15.41;78.76;100471.94;6086284;28;20025;-67
2023/07/04 06:19:50;;;;;;;3.75;1.30;;;;;;;15.48;78.22;100459.56;6077473;28;20030;-67
2023/07/04 06:22:45;;;;;;;6.40;1.58;;;;;;;15.51;79.25;100474.41;6077995;28;20037;-66
2023/07/04 06:25:41;;;;;;;2.33;0.97;;;;;;;15.70;79.10;100485.38;6080690;28;20033;-67
2023/07/04 06:28:37;;;;;;;5.40;1.43;;;;;;;15.57;79.46;100501.22;6080454;28;20045;-67
2023/07/04 06:31:32;;;;;;;4.43;1.33;;;;;;;15.65;80.11;100492.28;6085680;28;20033;-66
2023/07/04 06:34:28;;;;;;;4.63;1.13;;;;;;;15.90;80.01;100501.66;6076532;28;20057;-67
2023/07/04 06:37:23;;;;;;;6.80;1.45;;;;;;;15.78;79.52;100493.31;6076698;28;20025;-67
2023/07/04 06:40:19;;;;;;;3.43;1.37;;;;;;;15.74;79.45;100488.47;6076981;28;20086;-67
2023/07/04 06:43:14;;;;;;;6.07;1.60;;;;;;;16.11;78.27;100504.44;6078255;28;20365;-67
2023/07/04 06:46:11;;;;;;;5.37;1.53;;;;;;;15.76;78.53;100489.16;6076704;28;20026;-67
2023/07/04 06:49:06;;;;;;;7.10;1.80;;;;;;;15.72;79.28;100503.88;6076872;28;20272;-67
2023/07/04 06:52:01;;;;;;;3.67;1.53;;;;;;;15.57;80.04;100490.53;6076549;28;20048;-67
2023/07/04 06:54:56;;;;;;;6.60;1.63;;;;;;;15.90;79.28;100507.00;6075886;28;20032;-67
2023/07/04 06:57:53;;;;;;;6.67;1.87;;;;;;;15.74;78.58;100492.00;6076257;28;20476;-66
2023/07/04 07:00:54;;;;;;;6.25;1.50;;;;;;;15.85;78.88;100504.91;6076246;28;20018;-66
2023/07/04 07:03:49;;;;;;;4.72;1.70;;;;;;;16.04;78.16;100511.53;6075439;28;20086;-67
2023/07/04 07:06:45;;;;;;;5.43;1.60;;;;;;;16.19;78.90;100515.03;6076568;28;20029;-66
2023/07/04 07:09:41;;;;;;;2.73;1.27;;;;;;;16.70;75.77;100493.59;6078453;28;20045;-67
2023/07/04 07:12:37;;;;;;;4.32;1.50;;;;;;;17.25;72.69;100512.44;6083489;28;20033;-67
2023/07/04 07:15:32;;;;;;;4.57;2.30;;;;;;;17.08;72.79;100514.56;6075631;28;20033;-67
2023/07/04 07:18:27;;;;;;;5.90;1.90;;;;;;;17.04;71.71;100523.19;6075865;28;20040;-66
2023/07/04 07:21:24;;;;;;;8.73;2.33;;;;;;;17.73;70.40;100530.34;6075989;28;20033;-67
2023/07/04 07:24:20;;;;;;;8.40;2.20;;;;;;;17.58;69.32;100518.88;6080877;28;20087;-67
2023/07/04 07:27:16;;;;;;;7.23;1.80;;;;;;;17.24;69.49;100530.38;6079053;28;20416;-67
2023/07/04 07:30:12;;;;;;;5.18;2.22;;;;;;;17.41;71.40;100524.72;6075968;28;20615;-67
2023/07/04 07:33:07;;;;;;;5.13;1.90;;;;;;;17.72;70.35;100528.69;6075606;28;20026;-66
2023/07/04 07:36:18;;;;;;;7.67;1.80;;;;;;;17.63;68.81;100523.69;6075209;28;20029;-67
2023/07/04 07:39:15;;;;;;;6.45;1.83;;;;;;;17.24;69.35;100532.22;6075480;28;20028;-67
2023/07/04 07:42:12;;;;;;;9.27;2.20;;;;;;;17.21;70.93;100532.59;6075367;28;20075;-67
2023/07/04 07:45:08;;;;;;;7.15;2.20;;;;;;;17.12;71.57;100536.44;6082822;28;20083;-67
2023/07/04 07:48:03;;;;;;;5.47;2.17;;;;;;;17.46;71.60;100538.38;6075163;28;20059;-67
2023/07/04 07:50:58;;;;;;;6.40;2.25;;;;;;;17.57;70.64;100541.38;6079682;28;20460;-67
2023/07/04 07:53:55;;;;;;;8.03;2.80;;;;;;;17.45;69.22;100526.81;6087378;28;20032;-67
2023/07/04 07:56:50;;;;;;;10.38;2.90;;;;;;;17.17;70.54;100544.75;6075504;28;20033;-68
2023/07/04 07:59:45;;;;;;;9.10;3.27;;;;;;;16.77;70.48;100559.56;6080764;28;20040;-67
2023/07/04 08:02:41;;;;;;;4.45;2.50;;;;;;;16.62;69.92;100559.63;6075756;28;20080;-66
2023/07/04 08:05:40;;;;;;;9.93;2.70;;;;;;;16.58;69.22;100544.97;6075611;28;20037;-67
2023/07/04 08:08:35;;;;;;;6.00;2.55;;;;;;;16.54;69.59;100549.03;6076672;28;20021;-67
2023/07/04 08:11:31;;;;;;;5.83;2.30;;;;;;;16.71;69.49;100554.16;6080231;28;20094;-67
2023/07/04 08:14:27;;;;;;;5.78;2.28;;;;;;;16.77;70.03;100558.78;6076542;28;20396;-67
2023/07/04 08:17:22;;;;;;;7.63;2.30;;;;;;;16.95;70.39;100548.44;6074132;28;20021;-66
2023/07/04 08:20:17;;;;;;;7.23;2.50;;;;;;;17.08;70.92;100576.19;6074749;28;20632;-67
2023/07/04 08:23:12;;;;;;;10.33;2.40;;;;;;;17.08;71.82;100578.03;6073375;28;20017;-67
2023/07/04 08:26:14;;;;;;;6.53;1.92;;;;;;;16.85;70.95;100561.34;6081022;28;20037;-67
2023/07/04 08:29:10;;;;;;;7.22;1.65;;;;;;;16.71;69.29;100549.66;6075881;28;20102;-67
2023/07/04 08:32:06;;;;;;;5.68;1.65;;;;;;;16.92;70.06;100579.13;6074181;28;20025;-67
2023/07/04 08:35:01;;;;;;;4.10;1.77;;;;;;;16.83;68.87;100558.00;6073787;28;20032;-68
2023/07/04 08:37:56;;;;;;;5.93;1.85;;;;;;;16.97;68.83;100576.69;6073786;28;20029;-68
2023/07/04 08:40:52;;;;;;;9.20;2.03;;;;;;;16.98;68.30;100573.00;6074346;28;20035;-67
2023/07/04 08:44:09;;;;;;;5.22;1.92;;;;;;;17.07;69.75;100585.25;6073478;28;20029;-66
2023/07/04 08:47:05;;;;;;;5.50;1.80;;;;;;;17.23;68.53;100584.97;6080490;28;20030;-66
2023/07/04 08:50:00;;;;;;;8.30;2.10;;;;;;;17.19;68.99;100580.22;6072987;28;20067;-66
2023/07/04 08:53:02;;;;;;;5.18;2.17;;;;;;;17.27;68.57;100567.50;6073800;28;20025;-68
2023/07/04 08:56:21;;;;;;;6.03;1.90;;;;;;;17.51;68.35;100587.72;6078345;28;20041;-68
2023/07/04 08:59:21;;;;;;;;;;;;;;;17.59;68.47;100592.97;6075941;28;20053;-67
2023/07/04 09:02:28;;;;;;;4.55;1.60;;;;;;;17.67;67.24;100587.44;6078787;28;20000;-66
2023/07/04 09:05:42;;;;;;;;;;;;;;;17.42;65.32;100596.91;6080886;28;20112;-68
2023/07/04 09:08:53;;;;;;;6.78;1.95;;;;;;;17.26;66.69;100598.00;6081529;28;19955;-67
2023/07/04 09:11:48;;;;;;;4.47;1.48;;;;;;;17.51;66.32;100587.72;6076035;28;20069;-68
2023/07/04 09:14:58;;;;;;;6.32;1.95;;;;;;;17.66;68.44;100599.22;6072190;28;20105;-67
2023/07/04 09:18:08;;;;;;;3.90;1.95;;;;;;;18.00;66.36;100611.00;6074887;28;20076;-68
2023/07/04 09:21:09;;;;;;;4.53;1.50;;;;;;;18.25;64.51;100604.97;6070668;28;20104;-67
2023/07/04 09:24:05;;;;;;;3.92;1.42;;;;;;;18.25;63.72;100604.13;6079742;28;20111;-67
2023/07/04 09:27:01;;;;;;;6.25;1.50;;;;;;;18.27;63.41;100610.13;6084701;28;20082;-67
2023/07/04 09:29:57;;;;;;;4.55;1.40;;;;;;;18.78;62.29;100600.66;6071167;28;20041;-67
2023/07/04 09:32:52;;;;;;;5.57;1.35;;;;;;;19.12;60.19;100591.66;6057953;28;20029;-67
2023/07/04 09:35:48;;;;;;;3.63;1.23;;;;;;;19.63;57.53;100610.75;6077617;28;20026;-68
2023/07/04 09:39:09;;;;;;;3.03;1.20;;;;;;;19.52;58.21;100614.06;6076431;28;20052;-67
2023/07/04 09:42:07;;;;;;;9.82;1.50;;;;;;;19.26;59.34;100603.28;6076729;28;20043;-67
2023/07/04 09:45:06;;;;;;;3.42;1.20;;;;;;;19.39;59.88;100611.38;6076906;28;20032;-67
2023/07/04 09:48:03;;;;;;;3.50;1.58;;;;;;;19.79;55.79;100594.19;6077787;28;20022;-68
2023/07/04 09:51:15;;;;;;;3.40;1.27;;;;;;;19.69;56.04;100604.56;6077393;28;20029;-67
2023/07/04 09:54:18;;;;;;;5.43;1.48;;;;;;;19.44;55.53;100601.66;6076847;28;20057;-68
2023/07/04 09:57:25;;;;;;;5.35;1.25;;;;;;;19.43;56.58;100602.69;6077332;28;20106;-68
2023/07/04 10:00:23;;;;;;;4.60;1.92;;;;;;;19.88;54.46;100586.72;6077884;28;20049;-67
2023/07/04 10:03:18;;;;;;;4.13;1.20;;;;;;;20.11;53.94;100582.53;6076319;28;20109;-68
2023/07/04 10:06:29;;;;;;;2.77;1.33;;;;;;;20.17;54.83;100594.31;6077244;28;20381;-67
2023/07/04 10:09:26;;;;;;;4.63;1.60;;;;;;;20.13;54.92;100574.25;6076013;28;20028;-67
2023/07/04 10:12:23;;;;;;;2.58;1.10;;;;;;;20.89;54.18;100582.47;6075847;28;20135;-68
2023/07/04 10:15:24;;;;;;;6.80;1.50;;;;;;;21.00;51.15;100585.31;6076515;28;20419;-67
2023/07/04 10:18:26;;;;;;;3.45;1.30;;;;;;;20.50;51.08;100575.41;6076985;28;20044;-67
2023/07/04 10:21:21;;;;;;;7.43;1.33;;;;;;;20.57;51.82;100573.50;6077094;28;20096;-68
2023/07/04 10:24:19;;;;;;;2.73;1.20;;;;;;;20.82;52.29;100589.78;6076065;28;20040;-66
2023/07/04 10:27:15;;;;;;;5.75;1.20;;;;;;;20.80;50.62;100581.88;6076860;28;20028;-67
2023/07/04 10:30:18;;;;;;;5.32;1.60;;;;;;;20.80;48.71;100576.50;6076592;28;20056;-67
2023/07/04 10:33:42;;;;;;;5.18;1.30;;;;;;;20.53;49.90;100593.81;6075485;28;20076;-67
2023/07/04 10:36:37;;;;;;;3.83;1.42;;;;;;;20.52;51.76;100582.22;6075410;28;20107;-66
2023/07/04 10:39:37;;;;;;;4.53;1.40;;;;;;;21.20;50.87;100574.41;6075501;28;20489;-67
2023/07/04 10:42:40;;;;;;;8.27;1.70;;;;;;;21.36;46.98;100588.19;6075444;28;20029;-68
2023/07/04 10:45:35;;;;;;;5.00;1.92;;;;;;;21.11;50.20;100579.25;6074049;28;20038;-67
2023/07/04 10:48:33;;;;;;;7.35;1.60;;;;;;;21.14;48.96;100559.94;6076525;28;20056;-66
2023/07/04 10:51:35;;;;;;;6.18;1.73;;;;;;;21.20;48.36;100553.66;6074985;28;20033;-67
2023/07/04 10:54:30;;;;;;;3.40;1.42;;;;;;;21.18;48.86;100563.84;6074574;28;20029;-67
2023/07/04 10:57:32;;;;;;;3.60;1.57;;;;;;;21.24;49.87;100568.38;6075723;28;20025;-67
2023/07/04 11:00:35;;;;;;;4.82;1.63;;;;;;;20.60;48.14;100551.53;6076392;28;20727;-67
2023/07/04 11:03:59;;;;;;;7.30;2.03;;;;;;;19.89;49.60;100574.94;6073830;28;20376;-67
2023/07/04 11:07:00;;;;;;;6.13;1.80;;;;;;;19.82;51.54;100577.63;6064597;28;20045;-67
2023/07/04 11:09:57;;;;;;;5.72;1.50;;;;;;;19.89;50.89;100573.09;6075481;28;20025;-68
2023/07/04 11:12:54;;;;;;;5.55;2.05;;;;;;;19.75;51.23;100571.44;6075742;28;20469;-67
2023/07/04 11:15:56;;;;;;;4.65;1.77;;;;;;;19.96;51.75;100556.91;6073920;28;20476;-67
2023/07/04 11:19:06;;;;;;;11.18;2.45;;;;;;;20.36;50.09;100563.84;6073962;28;20025;-67
2023/07/04 11:22:04;;;;;;;5.65;1.75;;;;;;;20.20;50.43;100581.28;6081587;28;20464;-67
2023/07/04 11:25:25;;;;;;;5.68;1.98;;;;;;;20.04;51.51;100576.34;6074487;28;20473;-67
2023/07/04 11:28:35;;;;;;;9.80;2.53;;;;;;;19.64;51.39;100565.84;6074857;28;20033;-68
2023/07/04 11:31:30;;;;;;;8.38;2.28;;;;;;;19.33;52.68;100561.06;6074642;28;20045;-67
2023/07/04 11:34:42;;;;;;;6.43;2.40;;;;;;;19.39;53.30;100569.19;6091335;28;20480;-67
2023/07/04 11:37:53;;;;;;;6.05;2.67;;;;;;;19.52;53.60;100573.72;6075559;28;20040;-67
2023/07/04 11:40:54;;;;;;;5.57;2.30;;;;;;;19.84;54.43;100570.16;6068888;28;20061;-67
2023/07/04 11:43:50;;;;;;;5.60;2.10;;;;;;;20.22;53.07;100556.00;6073450;28;20040;-67
2023/07/04 11:46:57;;;;;;;6.57;2.35;;;;;;;20.49;52.25;100544.13;6075597;28;20484;-68
2023/07/04 11:49:56;;;;;;;7.90;2.47;;;;;;;20.82;51.95;100552.03;6074209;28;20199;-66
2023/07/04 11:52:55;;;;;;;6.32;2.40;;;;;;;20.62;50.61;100547.56;6074088;28;20061;-67
2023/07/04 11:56:04;;;;;;;;;;;;;;;20.62;52.63;100557.53;6074026;28;20079;-68
2023/07/04 11:59:11;;;;;;;9.63;2.45;;;;;;;20.15;50.65;100567.63;6076971;28;20008;-68
2023/07/04 12:02:28;;;;;;;8.23;2.42;;;;;;;19.64;52.34;100561.31;6079060;28;20060;-67
2023/07/04 12:05:33;;;;;;;9.00;2.42;;;;;;;19.35;53.63;100532.13;6075225;28;20080;-67
2023/07/04 12:08:40;;;;;;;5.57;2.35;;;;;;;19.57;55.09;100563.16;6077184;28;20346;-67
2023/07/04 12:11:42;;;;;;;7.70;2.55;;;;;;;19.60;56.29;100570.81;6074747;28;20032;-68
2023/07/04 12:14:38;;;;;;;6.53;2.17;;;;;;;19.58;56.50;100564.81;6077905;28;20063;-68
2023/07/04 12:17:43;;;;;;;7.97;2.65;;;;;;;19.79;55.73;100574.53;6077896;28;20037;-67
2023/07/04 12:20:59;;;;;;;8.40;2.95;;;;;;;19.44;56.61;100579.31;6078421;28;20025;-67
2023/07/04 12:23:54;;;;;;;7.07;2.50;;;;;;;19.31;57.70;100580.09;6072725;28;20473;-66
2023/07/04 12:26:57;;;;;;;8.03;2.50;;;;;;;18.95;55.49;100564.34;6076150;28;20055;-66
2023/07/04 12:29:52;;;;;;;9.70;2.22;;;;;;;18.80;57.47;100582.50;6076268;28;20029;-67
2023/07/04 12:32:49;;;;;;;10.80;2.50;;;;;;;18.59;57.81;100582.63;6074387;28;20653;-68
2023/07/04 12:35:52;;;;;;;4.75;2.00;;;;;;;18.59;58.79;100590.69;6074508;28;20355;-67
2023/07/04 12:38:49;;;;;;;4.70;2.35;;;;;;;18.45;58.59;100599.72;6086210;28;20163;-67
2023/07/04 12:41:44;;;;;;;5.47;2.90;;;;;;;18.32;60.48;100596.94;6076275;28;20098;-67
2023/07/04 12:44:40;;;;;;;8.23;2.63;;;;;;;18.18;62.99;100587.19;6079149;28;20040;-68
2023/07/04 12:47:35;;;;;;;9.13;2.67;;;;;;;18.21;62.75;100618.97;6073688;28;20083;-68
2023/07/04 12:50:31;;;;;;;12.73;2.97;;;;;;;18.20;64.28;100607.44;6073720;28;20036;-67
2023/07/04 12:53:28;;;;;;;6.00;2.90;;;;;;;18.46;62.63;100625.50;6072306;28;20044;-67
2023/07/04 12:56:23;;;;;;;6.93;2.60;;;;;;;18.67;60.85;100625.44;6075647;28;20059;-67
2023/07/04 12:59:33;;;;;;;9.98;2.50;;;;;;;19.35;57.81;100608.22;6076497;28;20369;-67
2023/07/04 13:02:32;;;;;;;6.22;2.38;;;;;;;19.27;56.21;100626.44;6073502;28;20469;-67
2023/07/04 13:05:39;;;;;;;7.25;2.30;;;;;;;19.15;57.47;100615.47;6079404;28;20499;-67
2023/07/04 13:08:44;;;;;;;7.43;2.05;;;;;;;19.12;56.49;100628.47;6079436;28;20032;-67
2023/07/04 13:11:39;;;;;;;6.85;2.00;;;;;;;18.96;59.00;100619.75;6078474;28;20040;-67
2023/07/04 13:14:34;;;;;;;7.33;2.37;;;;;;;19.78;55.74;100619.47;6073824;28;20026;-67
2023/07/04 13:17:29;;;;;;;7.17;2.43;;;;;;;20.26;55.60;100611.13;6073545;28;20044;-66
2023/07/04 13:20:28;;;;;;;6.85;2.15;;;;;;;20.13;54.33;100602.03;6074509;28;20041;-67
2023/07/04 13:23:24;;;;;;;7.00;2.22;;;;;;;20.71;53.72;100620.91;6079957;28;20029;-69
2023/07/04 13:26:25;;;;;;;10.13;2.90;;;;;;;21.32;53.07;100622.06;6078812;28;20067;-67
2023/07/04 13:29:24;;;;;;;6.65;2.55;;;;;;;21.86;52.00;100625.97;6075631;28;20433;-67
2023/07/04 13:32:21;;;;;;;8.57;2.40;;;;;;;21.81;50.98;100633.91;6087379;28;20029;-67
2023/07/04 13:35:36;;;;;;;8.38;2.95;;;;;;;21.79;50.86;100617.13;6072896;28;20032;-67
2023/07/04 13:38:32;;;;;;;10.07;2.42;;;;;;;21.77;50.69;100611.09;6076602;28;20107;-67
2023/07/04 13:41:27;;;;;;;6.10;2.38;;;;;;;21.93;51.95;100616.78;6079114;28;20109;-67
2023/07/04 13:44:23;;;;;;;7.10;2.13;;;;;;;22.04;49.89;100617.94;6080780;28;20060;-67
2023/07/04 13:47:18;;;;;;;7.57;2.73;;;;;;;22.16;51.02;100616.16;6073630;28;20108;-67
2023/07/04 13:50:14;;;;;;;12.75;2.92;;;;;;;22.19;49.09;100639.19;6078471;28;20024;-67